You are listening to:
T67 CTAF/Clearance - Fort Worth, Texas, United States

KAFW 172253Z 17009KT 10SM SCT080 SCT300 36/18 A2994 RMK AO2 SLP121 T03560178

If stream doesn't start automatically press the play button
If stream stops then reload player then press play